ACA2188 CYHZ-MMUN
Flight info
| Callsign | ACA2188 |
|---|---|
| Flight time | 5h 6m |
| Altitude | 32000 |
| Route | TUSKY Q475 COPLY Q75 FARLE DCT CLAUS Q437 VILLS Q409 GUILD/N0476F340 Q409 ENEME DCT CTY DCT KNOST M219 NAVVL L465 SHARQ UM463 WALKY UB879 NOSAT NOSAT1B |
| Aircraft | B738/M-SDE2E3FGHIRWXY/LB1 |
Departure
| Time | 2026-05-07 14:47 |
|---|---|
| Airport | Halifax / Stanfield International Airport (CYHZ) |
Arrival
| Time | 2026-05-07 19:54 |
|---|---|
| Airport | Cancún International Airport (MMUN) |
| Time | Latitude | Longitude | Altitude | Speed | Heading |
|---|---|---|---|---|---|
| 2026-05-07 14:12 | 44.88854 | -63.51424 | 451 ft | 0 kts | 239° |
| 2026-05-07 14:36 | 44.88866 | -63.51397 | 451 ft | 4 kts | 239° |
| 2026-05-07 14:36 | 44.88877 | -63.51371 | 451 ft | 4 kts | 239° |
| 2026-05-07 14:37 | 44.88887 | -63.51345 | 451 ft | 3 kts | 239° |
| 2026-05-07 14:37 | 44.88897 | -63.51323 | 451 ft | 0 kts | 239° |
| 2026-05-07 14:41 | 44.88896 | -63.51325 | 451 ft | 1 kts | 238° |
| 2026-05-07 14:41 | 44.88874 | -63.51335 | 451 ft | 5 kts | 174° |
| 2026-05-07 14:41 | 44.88829 | -63.51299 | 451 ft | 10 kts | 155° |
| 2026-05-07 14:41 | 44.88757 | -63.51277 | 451 ft | 11 kts | 170° |
| 2026-05-07 14:42 | 44.88695 | -63.51234 | 451 ft | 10 kts | 114° |
| 2026-05-07 14:42 | 44.88700 | -63.51136 | 451 ft | 10 kts | 80° |
| 2026-05-07 14:42 | 44.88712 | -63.51041 | 451 ft | 10 kts | 80° |
| 2026-05-07 14:42 | 44.88726 | -63.50950 | 451 ft | 10 kts | 70° |
| 2026-05-07 14:43 | 44.88769 | -63.50882 | 451 ft | 10 kts | 34° |
| 2026-05-07 14:43 | 44.88826 | -63.50824 | 450 ft | 11 kts | 36° |
| 2026-05-07 14:43 | 44.88892 | -63.50757 | 449 ft | 12 kts | 34° |
| 2026-05-07 14:43 | 44.88958 | -63.50693 | 450 ft | 7 kts | 34° |
| 2026-05-07 14:44 | 44.88998 | -63.50649 | 448 ft | 7 kts | 52° |
| 2026-05-07 14:44 | 44.89004 | -63.50595 | 450 ft | 2 kts | 105° |
| 2026-05-07 14:44 | 44.89003 | -63.50593 | 450 ft | 0 kts | 108° |
| 2026-05-07 14:45 | 44.89002 | -63.50591 | 450 ft | 2 kts | 108° |
| 2026-05-07 14:45 | 44.88985 | -63.50548 | 450 ft | 8 kts | 123° |
| 2026-05-07 14:46 | 44.88949 | -63.50473 | 450 ft | 11 kts | 124° |
| 2026-05-07 14:46 | 44.88887 | -63.50437 | 450 ft | 11 kts | 193° |
| 2026-05-07 14:46 | 44.88809 | -63.50510 | 450 ft | 22 kts | 215° |
| 2026-05-07 14:46 | 44.88487 | -63.50827 | 451 ft | 91 kts | 215° |
| 2026-05-07 14:47 | 44.87792 | -63.51515 | 452 ft | 151 kts | 215° |
| 2026-05-07 14:47 | 44.86881 | -63.52424 | 1045 ft | 159 kts | 214° |
| 2026-05-07 14:47 | 44.85982 | -63.53387 | 1941 ft | 163 kts | 217° |
| 2026-05-07 14:47 | 44.85042 | -63.54435 | 2452 ft | 185 kts | 217° |
| 2026-05-07 14:48 | 44.83982 | -63.55611 | 2685 ft | 204 kts | 216° |
| 2026-05-07 14:48 | 44.82879 | -63.56878 | 3261 ft | 207 kts | 216° |
| 2026-05-07 14:48 | 44.81736 | -63.58257 | 3650 ft | 224 kts | 222° |
| 2026-05-07 14:48 | 44.80897 | -63.60156 | 4394 ft | 233 kts | 239° |
| 2026-05-07 14:49 | 44.80221 | -63.62217 | 5124 ft | 236 kts | 239° |
| 2026-05-07 14:49 | 44.79532 | -63.64319 | 5908 ft | 237 kts | 239° |
| 2026-05-07 14:49 | 44.78839 | -63.66416 | 6711 ft | 238 kts | 239° |
| 2026-05-07 14:49 | 44.78129 | -63.68538 | 7405 ft | 241 kts | 239° |
| 2026-05-07 14:50 | 44.77407 | -63.70684 | 8069 ft | 245 kts | 239° |
| 2026-05-07 14:50 | 44.76662 | -63.72867 | 8665 ft | 250 kts | 239° |
| 2026-05-07 14:50 | 44.75906 | -63.75085 | 9343 ft | 252 kts | 239° |
| 2026-05-07 14:50 | 44.75143 | -63.77313 | 10027 ft | 254 kts | 240° |
| 2026-05-07 14:51 | 44.74367 | -63.79566 | 10399 ft | 269 kts | 240° |
| 2026-05-07 14:51 | 44.73513 | -63.82021 | 10577 ft | 290 kts | 241° |
| 2026-05-07 14:51 | 44.72601 | -63.84652 | 10728 ft | 309 kts | 242° |
| 2026-05-07 14:51 | 44.71629 | -63.87457 | 10875 ft | 328 kts | 242° |
| 2026-05-07 14:52 | 44.70608 | -63.90413 | 11011 ft | 345 kts | 242° |
| 2026-05-07 14:52 | 44.69537 | -63.93500 | 11278 ft | 356 kts | 242° |
| 2026-05-07 14:52 | 44.68442 | -63.96641 | 11803 ft | 359 kts | 242° |
| 2026-05-07 14:52 | 44.67339 | -63.99804 | 12397 ft | 360 kts | 243° |
| 2026-05-07 14:53 | 44.66235 | -64.02967 | 13008 ft | 360 kts | 243° |
| 2026-05-07 14:53 | 44.65136 | -64.06114 | 13642 ft | 361 kts | 243° |
| 2026-05-07 14:53 | 44.64037 | -64.09253 | 14156 ft | 363 kts | 242° |
| 2026-05-07 14:53 | 44.62917 | -64.12446 | 14676 ft | 365 kts | 242° |
| 2026-05-07 14:54 | 44.61794 | -64.15642 | 15218 ft | 366 kts | 242° |
| 2026-05-07 14:54 | 44.60664 | -64.18856 | 15701 ft | 368 kts | 242° |
| 2026-05-07 14:54 | 44.59528 | -64.22082 | 16177 ft | 370 kts | 242° |
| 2026-05-07 14:54 | 44.58386 | -64.25322 | 16675 ft | 371 kts | 242° |
| 2026-05-07 14:55 | 44.57239 | -64.28569 | 17129 ft | 373 kts | 242° |
| 2026-05-07 14:55 | 44.56099 | -64.31796 | 17542 ft | 375 kts | 242° |
| 2026-05-07 14:55 | 44.54937 | -64.35079 | 17955 ft | 377 kts | 242° |
| 2026-05-07 14:55 | 44.53769 | -64.38375 | 18399 ft | 378 kts | 242° |
| 2026-05-07 14:56 | 44.52595 | -64.41684 | 18785 ft | 380 kts | 242° |
| 2026-05-07 14:56 | 44.51413 | -64.45014 | 19128 ft | 383 kts | 242° |
| 2026-05-07 14:56 | 44.50219 | -64.48370 | 19448 ft | 387 kts | 242° |
| 2026-05-07 14:56 | 44.49015 | -64.51753 | 19799 ft | 389 kts | 242° |
| 2026-05-07 14:57 | 44.47805 | -64.55146 | 20165 ft | 391 kts | 242° |
| 2026-05-07 14:57 | 44.46603 | -64.58516 | 20522 ft | 393 kts | 242° |
| 2026-05-07 14:57 | 44.45378 | -64.61945 | 20867 ft | 395 kts | 242° |
| 2026-05-07 14:57 | 44.44145 | -64.65391 | 21160 ft | 397 kts | 242° |
| 2026-05-07 14:58 | 44.42905 | -64.68853 | 21489 ft | 399 kts | 242° |
| 2026-05-07 14:58 | 44.41659 | -64.72327 | 21850 ft | 400 kts | 242° |
| 2026-05-07 14:58 | 44.40409 | -64.75807 | 22149 ft | 402 kts | 242° |
| 2026-05-07 14:58 | 44.39151 | -64.79306 | 22413 ft | 404 kts | 241° |
| 2026-05-07 14:59 | 44.37884 | -64.82826 | 22675 ft | 406 kts | 241° |
| 2026-05-07 14:59 | 44.36611 | -64.86355 | 22984 ft | 407 kts | 241° |
| 2026-05-07 14:59 | 44.35353 | -64.89842 | 23260 ft | 408 kts | 241° |
| 2026-05-07 14:59 | 44.34070 | -64.93393 | 23513 ft | 410 kts | 241° |
| 2026-05-07 15:00 | 44.32783 | -64.96947 | 23786 ft | 411 kts | 241° |
| 2026-05-07 15:00 | 44.31489 | -65.00517 | 24034 ft | 413 kts | 241° |
| 2026-05-07 15:00 | 44.30191 | -65.04096 | 24292 ft | 414 kts | 241° |
| 2026-05-07 15:00 | 44.28889 | -65.07679 | 24572 ft | 414 kts | 242° |
| 2026-05-07 15:01 | 44.27589 | -65.11254 | 24912 ft | 413 kts | 242° |
| 2026-05-07 15:01 | 44.26289 | -65.14825 | 25193 ft | 413 kts | 242° |
| 2026-05-07 15:01 | 44.24988 | -65.18391 | 25445 ft | 413 kts | 242° |
| 2026-05-07 15:01 | 44.23703 | -65.21910 | 25671 ft | 413 kts | 242° |
| 2026-05-07 15:02 | 44.22402 | -65.25467 | 25940 ft | 411 kts | 242° |
| 2026-05-07 15:02 | 44.21108 | -65.29001 | 26259 ft | 408 kts | 242° |
| 2026-05-07 15:02 | 44.19821 | -65.32512 | 26560 ft | 405 kts | 243° |
| 2026-05-07 15:02 | 44.18541 | -65.36000 | 26893 ft | 402 kts | 243° |
| 2026-05-07 15:03 | 44.17272 | -65.39455 | 27206 ft | 399 kts | 243° |
| 2026-05-07 15:03 | 44.16008 | -65.42886 | 27491 ft | 398 kts | 243° |
| 2026-05-07 15:03 | 44.14771 | -65.46245 | 27937 ft | 392 kts | 244° |
| 2026-05-07 15:03 | 44.13537 | -65.49598 | 28353 ft | 387 kts | 244° |
| 2026-05-07 15:04 | 44.12310 | -65.52915 | 28695 ft | 383 kts | 244° |
| 2026-05-07 15:04 | 44.11088 | -65.56197 | 28993 ft | 381 kts | 244° |
| 2026-05-07 15:04 | 44.09876 | -65.59461 | 29324 ft | 377 kts | 245° |
| 2026-05-07 15:04 | 44.08681 | -65.62692 | 29667 ft | 374 kts | 245° |
| 2026-05-07 15:05 | 44.07497 | -65.65892 | 30065 ft | 369 kts | 245° |
| 2026-05-07 15:05 | 44.06326 | -65.69055 | 30391 ft | 367 kts | 245° |
| 2026-05-07 15:05 | 44.05158 | -65.72204 | 30725 ft | 364 kts | 245° |
| 2026-05-07 15:05 | 44.04015 | -65.75277 | 30970 ft | 362 kts | 245° |
| 2026-05-07 15:06 | 44.02855 | -65.78394 | 31160 ft | 363 kts | 246° |
| 2026-05-07 15:06 | 44.01694 | -65.81503 | 31472 ft | 362 kts | 246° |
| 2026-05-07 15:06 | 44.00524 | -65.84590 | 31736 ft | 359 kts | 246° |
| 2026-05-07 15:06 | 43.99373 | -65.87654 | 31728 ft | 356 kts | 246° |
| 2026-05-07 15:07 | 43.97092 | -65.93782 | 31747 ft | 358 kts | 246° |
| 2026-05-07 15:07 | 43.94816 | -65.99878 | 31734 ft | 358 kts | 245° |
| 2026-05-07 15:08 | 43.92504 | -66.06009 | 31740 ft | 359 kts | 243° |
| 2026-05-07 15:08 | 43.90186 | -66.12146 | 31742 ft | 359 kts | 243° |
| 2026-05-07 15:09 | 43.87866 | -66.18283 | 31739 ft | 360 kts | 243° |
| 2026-05-07 15:09 | 43.85555 | -66.24383 | 31741 ft | 360 kts | 243° |
| 2026-05-07 15:10 | 43.83224 | -66.30524 | 31740 ft | 360 kts | 243° |
| 2026-05-07 15:10 | 43.80885 | -66.36672 | 31741 ft | 361 kts | 243° |
| 2026-05-07 15:11 | 43.78540 | -66.42824 | 31741 ft | 361 kts | 243° |
| 2026-05-07 15:11 | 43.76208 | -66.48930 | 31738 ft | 361 kts | 243° |
| 2026-05-07 15:12 | 43.73864 | -66.55052 | 31739 ft | 360 kts | 243° |
| 2026-05-07 15:12 | 43.71512 | -66.61180 | 31741 ft | 361 kts | 243° |
| 2026-05-07 15:13 | 43.69150 | -66.67320 | 31743 ft | 362 kts | 243° |
| 2026-05-07 15:13 | 43.66800 | -66.73422 | 31752 ft | 362 kts | 243° |
| 2026-05-07 15:14 | 43.64425 | -66.79565 | 31747 ft | 363 kts | 243° |
| 2026-05-07 15:14 | 43.62048 | -66.85706 | 31749 ft | 363 kts | 243° |
| 2026-05-07 15:15 | 43.59675 | -66.91831 | 31745 ft | 361 kts | 243° |
| 2026-05-07 15:15 | 43.57320 | -66.97887 | 31752 ft | 361 kts | 243° |
| 2026-05-07 15:16 | 43.55289 | -67.04207 | 31763 ft | 360 kts | 248° |
| 2026-05-07 15:16 | 43.53498 | -67.10652 | 31762 ft | 359 kts | 248° |
| 2026-05-07 15:17 | 43.51705 | -67.17075 | 31759 ft | 359 kts | 248° |
| 2026-05-07 15:17 | 43.49920 | -67.23436 | 31755 ft | 358 kts | 248° |
| 2026-05-07 15:18 | 43.48121 | -67.29831 | 31767 ft | 358 kts | 248° |
| 2026-05-07 15:18 | 43.46317 | -67.36209 | 31769 ft | 357 kts | 248° |
| 2026-05-07 15:19 | 43.44512 | -67.42572 | 31768 ft | 357 kts | 248° |
| 2026-05-07 15:19 | 43.42719 | -67.48879 | 31770 ft | 356 kts | 248° |
| 2026-05-07 15:20 | 43.40914 | -67.55209 | 31772 ft | 355 kts | 248° |
| 2026-05-07 15:20 | 43.39111 | -67.61515 | 31774 ft | 354 kts | 248° |
| 2026-05-07 15:21 | 43.37322 | -67.67762 | 31779 ft | 354 kts | 248° |
| 2026-05-07 15:21 | 43.35520 | -67.74047 | 31771 ft | 354 kts | 248° |
| 2026-05-07 15:22 | 43.33711 | -67.80335 | 31775 ft | 354 kts | 248° |
| 2026-05-07 15:22 | 43.31898 | -67.86614 | 31785 ft | 353 kts | 248° |
| 2026-05-07 15:23 | 43.30085 | -67.92884 | 31785 ft | 354 kts | 248° |
| 2026-05-07 15:23 | 43.28276 | -67.99126 | 31794 ft | 355 kts | 248° |
| 2026-05-07 15:24 | 43.26453 | -68.05400 | 31787 ft | 353 kts | 248° |
| 2026-05-07 15:24 | 43.24626 | -68.11663 | 31793 ft | 353 kts | 248° |
| 2026-05-07 15:25 | 43.22795 | -68.17925 | 31801 ft | 354 kts | 247° |
| 2026-05-07 15:25 | 43.20973 | -68.24147 | 31793 ft | 354 kts | 248° |
| 2026-05-07 15:26 | 43.19133 | -68.30426 | 31788 ft | 355 kts | 248° |
| 2026-05-07 15:26 | 43.17281 | -68.36711 | 31789 ft | 356 kts | 248° |
| 2026-05-07 15:27 | 43.15426 | -68.43000 | 31789 ft | 356 kts | 248° |
| 2026-05-07 15:27 | 43.13579 | -68.49250 | 31796 ft | 356 kts | 248° |
| 2026-05-07 15:28 | 43.11715 | -68.55540 | 31796 ft | 357 kts | 248° |
| 2026-05-07 15:28 | 43.09843 | -68.61838 | 31799 ft | 358 kts | 248° |
| 2026-05-07 15:29 | 43.07963 | -68.68136 | 31796 ft | 357 kts | 248° |
| 2026-05-07 15:29 | 43.06095 | -68.74390 | 31802 ft | 358 kts | 248° |
| 2026-05-07 15:30 | 43.04210 | -68.80690 | 31803 ft | 358 kts | 248° |
| 2026-05-07 15:30 | 43.02323 | -68.86990 | 31805 ft | 358 kts | 248° |
| 2026-05-07 15:31 | 43.00430 | -68.93284 | 31810 ft | 358 kts | 248° |
| 2026-05-07 15:31 | 42.98541 | -68.99535 | 31804 ft | 359 kts | 248° |
| 2026-05-07 15:32 | 42.96640 | -69.05834 | 31803 ft | 359 kts | 248° |
| 2026-05-07 15:32 | 42.94733 | -69.12122 | 31805 ft | 358 kts | 248° |
| 2026-05-07 15:33 | 42.92818 | -69.18421 | 31809 ft | 360 kts | 248° |
| 2026-05-07 15:33 | 42.90914 | -69.24671 | 31813 ft | 359 kts | 248° |
| 2026-05-07 15:34 | 42.88996 | -69.30955 | 31814 ft | 358 kts | 248° |
| 2026-05-07 15:34 | 42.87082 | -69.37216 | 31815 ft | 358 kts | 248° |
| 2026-05-07 15:35 | 42.85163 | -69.43470 | 31820 ft | 358 kts | 248° |
| 2026-05-07 15:35 | 42.83240 | -69.49727 | 31820 ft | 358 kts | 247° |
| 2026-05-07 15:36 | 42.81330 | -69.55929 | 31823 ft | 358 kts | 247° |
| 2026-05-07 15:36 | 42.79403 | -69.62166 | 31825 ft | 357 kts | 247° |
| 2026-05-07 15:37 | 42.77475 | -69.68392 | 31825 ft | 356 kts | 247° |
| 2026-05-07 15:37 | 42.75546 | -69.74601 | 31827 ft | 356 kts | 247° |
| 2026-05-07 15:38 | 42.73634 | -69.80761 | 31830 ft | 356 kts | 248° |
| 2026-05-07 15:38 | 42.71701 | -69.86958 | 31832 ft | 356 kts | 247° |
| 2026-05-07 15:39 | 42.69766 | -69.93148 | 31830 ft | 355 kts | 247° |
| 2026-05-07 15:39 | 42.67833 | -69.99322 | 31835 ft | 355 kts | 247° |
| 2026-05-07 15:40 | 42.65909 | -70.05436 | 31835 ft | 353 kts | 247° |
| 2026-05-07 15:40 | 42.63955 | -70.11549 | 31841 ft | 353 kts | 247° |
| 2026-05-07 15:41 | 42.62007 | -70.17654 | 31854 ft | 352 kts | 247° |
| 2026-05-07 15:41 | 42.60061 | -70.23742 | 31839 ft | 351 kts | 247° |
| 2026-05-07 15:42 | 42.58136 | -70.29783 | 31841 ft | 351 kts | 247° |
| 2026-05-07 15:42 | 42.56198 | -70.35850 | 31837 ft | 350 kts | 247° |
| 2026-05-07 15:43 | 42.54259 | -70.41905 | 31834 ft | 350 kts | 247° |
| 2026-05-07 15:43 | 42.52319 | -70.47958 | 31837 ft | 350 kts | 247° |
| 2026-05-07 15:44 | 42.50373 | -70.54012 | 31851 ft | 350 kts | 247° |
| 2026-05-07 15:44 | 42.48434 | -70.60026 | 31842 ft | 351 kts | 247° |
| 2026-05-07 15:45 | 42.46464 | -70.66081 | 31836 ft | 351 kts | 247° |
| 2026-05-07 15:45 | 42.44492 | -70.72131 | 31841 ft | 351 kts | 247° |
| 2026-05-07 15:46 | 42.41532 | -70.81202 | 31843 ft | 350 kts | 247° |
| 2026-05-07 15:47 | 42.39573 | -70.87190 | 31845 ft | 350 kts | 247° |
| 2026-05-07 15:47 | 42.37606 | -70.93194 | 31839 ft | 349 kts | 247° |
| 2026-05-07 15:48 | 42.35669 | -70.99189 | 31835 ft | 347 kts | 249° |
| 2026-05-07 15:48 | 42.34150 | -71.05376 | 31837 ft | 346 kts | 251° |
| 2026-05-07 15:49 | 42.32707 | -71.11528 | 31836 ft | 345 kts | 251° |
| 2026-05-07 15:49 | 42.31253 | -71.17690 | 31848 ft | 344 kts | 251° |
| 2026-05-07 15:50 | 42.29794 | -71.23839 | 31835 ft | 343 kts | 251° |
| 2026-05-07 15:50 | 42.28334 | -71.29956 | 31843 ft | 342 kts | 251° |
| 2026-05-07 15:51 | 42.26880 | -71.36019 | 31844 ft | 341 kts | 251° |
| 2026-05-07 15:51 | 42.25418 | -71.42100 | 31855 ft | 340 kts | 251° |
| 2026-05-07 15:52 | 42.23957 | -71.48154 | 31844 ft | 338 kts | 251° |
| 2026-05-07 15:52 | 42.22505 | -71.54170 | 31852 ft | 336 kts | 251° |
| 2026-05-07 15:53 | 42.21062 | -71.60129 | 31851 ft | 336 kts | 251° |
| 2026-05-07 15:53 | 42.19608 | -71.66107 | 31855 ft | 335 kts | 251° |
| 2026-05-07 15:54 | 42.18155 | -71.72072 | 31861 ft | 334 kts | 251° |
| 2026-05-07 15:54 | 42.16708 | -71.78007 | 31873 ft | 333 kts | 250° |
| 2026-05-07 15:55 | 42.15258 | -71.83928 | 31868 ft | 333 kts | 250° |
| 2026-05-07 15:55 | 42.13814 | -71.89807 | 31869 ft | 333 kts | 250° |
| 2026-05-07 15:56 | 42.12361 | -71.95716 | 31872 ft | 332 kts | 250° |
| 2026-05-07 15:56 | 42.10905 | -72.01621 | 31877 ft | 332 kts | 250° |
| 2026-05-07 15:57 | 42.09447 | -72.07520 | 31877 ft | 332 kts | 250° |
| 2026-05-07 15:57 | 42.07999 | -72.13365 | 31881 ft | 332 kts | 250° |
| 2026-05-07 15:58 | 42.06532 | -72.19264 | 31877 ft | 332 kts | 250° |
| 2026-05-07 15:58 | 42.05063 | -72.25161 | 31879 ft | 332 kts | 250° |
| 2026-05-07 15:59 | 42.03598 | -72.31055 | 31889 ft | 333 kts | 250° |
| 2026-05-07 15:59 | 42.02136 | -72.36917 | 31882 ft | 333 kts | 250° |
| 2026-05-07 16:00 | 42.00663 | -72.42819 | 31886 ft | 333 kts | 250° |
| 2026-05-07 16:00 | 41.99183 | -72.48723 | 31892 ft | 333 kts | 250° |
| 2026-05-07 16:01 | 41.97701 | -72.54627 | 31895 ft | 334 kts | 250° |
| 2026-05-07 16:01 | 41.96214 | -72.60527 | 31898 ft | 333 kts | 250° |
| 2026-05-07 16:02 | 41.94452 | -72.66224 | 31910 ft | 333 kts | 243° |
| 2026-05-07 16:02 | 41.91975 | -72.71505 | 31902 ft | 336 kts | 238° |
| 2026-05-07 16:03 | 41.88798 | -72.76203 | 31903 ft | 341 kts | 232° |
| 2026-05-07 16:03 | 41.85468 | -72.80735 | 31900 ft | 341 kts | 232° |
| 2026-05-07 16:04 | 41.82134 | -72.85264 | 31914 ft | 342 kts | 232° |
| 2026-05-07 16:04 | 41.78811 | -72.89763 | 31896 ft | 341 kts | 232° |
| 2026-05-07 16:05 | 41.75479 | -72.94288 | 31905 ft | 343 kts | 232° |
| 2026-05-07 16:05 | 41.72134 | -72.98832 | 31913 ft | 342 kts | 232° |
| 2026-05-07 16:06 | 41.68809 | -73.03337 | 31909 ft | 344 kts | 232° |
| 2026-05-07 16:06 | 41.65457 | -73.07874 | 31911 ft | 343 kts | 232° |
| 2026-05-07 16:07 | 41.62105 | -73.12422 | 31910 ft | 344 kts | 232° |
| 2026-05-07 16:07 | 41.58736 | -73.16971 | 31915 ft | 346 kts | 232° |
| 2026-05-07 16:08 | 41.55352 | -73.21514 | 31910 ft | 346 kts | 232° |
| 2026-05-07 16:08 | 41.51985 | -73.26033 | 31921 ft | 345 kts | 232° |
| 2026-05-07 16:09 | 41.48599 | -73.30558 | 31908 ft | 344 kts | 232° |
| 2026-05-07 16:09 | 41.45258 | -73.35101 | 31910 ft | 344 kts | 233° |
| 2026-05-07 16:10 | 41.41935 | -73.39661 | 31916 ft | 342 kts | 233° |
| 2026-05-07 16:10 | 41.38630 | -73.44178 | 31922 ft | 343 kts | 233° |
| 2026-05-07 16:11 | 41.35301 | -73.48729 | 31925 ft | 343 kts | 233° |
| 2026-05-07 16:11 | 41.31956 | -73.53263 | 31930 ft | 342 kts | 233° |
| 2026-05-07 16:12 | 41.28619 | -73.57816 | 31934 ft | 345 kts | 234° |
| 2026-05-07 16:12 | 41.25595 | -73.62713 | 31911 ft | 343 kts | 237° |
| 2026-05-07 16:13 | 41.23122 | -73.66810 | 31924 ft | 341 kts | 237° |
| 2026-05-07 16:13 | 41.19655 | -73.72540 | 31919 ft | 342 kts | 237° |
| 2026-05-07 16:14 | 41.16664 | -73.77440 | 31902 ft | 341 kts | 237° |
| 2026-05-07 16:14 | 41.13926 | -73.81268 | 31906 ft | 351 kts | 229° |
| 2026-05-07 16:15 | 41.10158 | -73.85423 | 31908 ft | 354 kts | 228° |
| 2026-05-07 16:15 | 41.05754 | -73.90224 | 31906 ft | 352 kts | 228° |
| 2026-05-07 16:16 | 41.02609 | -73.93681 | 31903 ft | 350 kts | 228° |
| 2026-05-07 16:16 | 40.98877 | -73.97783 | 31912 ft | 352 kts | 228° |
| 2026-05-07 16:17 | 40.95103 | -74.01923 | 31916 ft | 352 kts | 228° |
| 2026-05-07 16:17 | 40.91324 | -74.06056 | 31919 ft | 353 kts | 228° |
| 2026-05-07 16:18 | 40.87546 | -74.10189 | 31919 ft | 353 kts | 228° |
| 2026-05-07 16:18 | 40.83781 | -74.14301 | 31918 ft | 353 kts | 228° |
| 2026-05-07 16:19 | 40.80094 | -74.18539 | 31925 ft | 349 kts | 231° |
| 2026-05-07 16:19 | 40.76630 | -74.23021 | 31927 ft | 349 kts | 232° |
| 2026-05-07 16:20 | 40.73164 | -74.27508 | 31929 ft | 349 kts | 232° |
| 2026-05-07 16:20 | 40.69685 | -74.31991 | 31924 ft | 350 kts | 232° |
| 2026-05-07 16:21 | 40.66228 | -74.36437 | 31944 ft | 350 kts | 232° |
| 2026-05-07 16:21 | 40.62744 | -74.40910 | 31934 ft | 350 kts | 232° |
| 2026-05-07 16:22 | 40.59250 | -74.45377 | 31937 ft | 350 kts | 232° |
| 2026-05-07 16:22 | 40.55747 | -74.49860 | 31934 ft | 352 kts | 231° |
| 2026-05-07 16:23 | 40.52262 | -74.54310 | 31930 ft | 352 kts | 232° |
| 2026-05-07 16:23 | 40.48753 | -74.58788 | 31926 ft | 351 kts | 231° |
| 2026-05-07 16:24 | 40.45163 | -74.63157 | 31917 ft | 359 kts | 225° |
| 2026-05-07 16:24 | 40.40775 | -74.66503 | 31924 ft | 369 kts | 218° |
| 2026-05-07 16:25 | 40.35858 | -74.68820 | 31926 ft | 391 kts | 206° |
| 2026-05-07 16:25 | 40.30515 | -74.70259 | 31925 ft | 392 kts | 206° |
| 2026-05-07 16:26 | 40.25169 | -74.71659 | 31925 ft | 391 kts | 206° |
| 2026-05-07 16:26 | 40.19840 | -74.73077 | 31930 ft | 391 kts | 206° |
| 2026-05-07 16:27 | 40.14513 | -74.74512 | 31927 ft | 391 kts | 206° |
| 2026-05-07 16:27 | 40.09225 | -74.75938 | 31926 ft | 391 kts | 206° |
| 2026-05-07 16:28 | 40.03902 | -74.77368 | 31935 ft | 390 kts | 206° |
| 2026-05-07 16:28 | 39.98589 | -74.78797 | 31937 ft | 390 kts | 206° |
| 2026-05-07 16:29 | 39.93265 | -74.80225 | 31908 ft | 392 kts | 205° |
| 2026-05-07 16:29 | 39.87938 | -74.81660 | 31926 ft | 394 kts | 205° |
| 2026-05-07 16:30 | 39.82558 | -74.83097 | 31947 ft | 396 kts | 205° |
| 2026-05-07 16:30 | 39.77154 | -74.84537 | 31940 ft | 397 kts | 205° |
| 2026-05-07 16:31 | 39.71741 | -74.85978 | 31942 ft | 397 kts | 205° |
| 2026-05-07 16:31 | 39.66321 | -74.87419 | 31945 ft | 398 kts | 205° |
| 2026-05-07 16:32 | 39.60931 | -74.88851 | 31944 ft | 398 kts | 205° |
| 2026-05-07 16:32 | 39.55773 | -74.90927 | 31952 ft | 380 kts | 215° |
| 2026-05-07 16:33 | 39.51255 | -74.94220 | 31947 ft | 370 kts | 221° |
| 2026-05-07 16:33 | 39.46871 | -74.97753 | 31947 ft | 372 kts | 221° |
| 2026-05-07 16:34 | 39.42494 | -75.01252 | 31943 ft | 373 kts | 221° |
| 2026-05-07 16:34 | 39.38070 | -75.04772 | 31945 ft | 374 kts | 221° |
| 2026-05-07 16:35 | 39.33639 | -75.08291 | 31948 ft | 374 kts | 221° |
| 2026-05-07 16:35 | 39.29318 | -75.11992 | 31949 ft | 368 kts | 227° |
| 2026-05-07 16:36 | 39.25580 | -75.16366 | 31946 ft | 365 kts | 230° |
| 2026-05-07 16:36 | 39.21821 | -75.20782 | 31945 ft | 366 kts | 229° |
| 2026-05-07 16:37 | 39.18050 | -75.25191 | 31946 ft | 366 kts | 229° |
| 2026-05-07 16:37 | 39.14273 | -75.29596 | 31947 ft | 366 kts | 229° |
| 2026-05-07 16:38 | 39.10490 | -75.34003 | 31945 ft | 367 kts | 229° |
| 2026-05-07 16:38 | 39.06728 | -75.38379 | 31945 ft | 368 kts | 230° |
| 2026-05-07 16:39 | 39.02445 | -75.42160 | 31948 ft | 385 kts | 216° |
| 2026-05-07 16:39 | 38.97374 | -75.44661 | 31927 ft | 399 kts | 206° |
| 2026-05-07 16:40 | 38.91746 | -75.45593 | 31928 ft | 410 kts | 199° |
| 2026-05-07 16:40 | 38.86123 | -75.46311 | 31948 ft | 408 kts | 200° |
| 2026-05-07 16:41 | 38.80478 | -75.47080 | 31947 ft | 408 kts | 200° |
| 2026-05-07 16:41 | 38.74824 | -75.47874 | 31956 ft | 410 kts | 200° |
| 2026-05-07 16:42 | 38.69135 | -75.48665 | 31951 ft | 412 kts | 199° |
| 2026-05-07 16:42 | 38.63454 | -75.49428 | 31956 ft | 414 kts | 199° |
| 2026-05-07 16:43 | 38.57709 | -75.50198 | 31957 ft | 416 kts | 199° |
| 2026-05-07 16:43 | 38.51939 | -75.50972 | 31947 ft | 417 kts | 199° |
| 2026-05-07 16:44 | 38.46160 | -75.51737 | 31957 ft | 418 kts | 199° |
| 2026-05-07 16:44 | 38.40412 | -75.52523 | 31954 ft | 418 kts | 199° |
| 2026-05-07 16:45 | 38.34843 | -75.54009 | 31955 ft | 401 kts | 211° |
| 2026-05-07 16:45 | 38.29832 | -75.56898 | 31956 ft | 388 kts | 222° |
| 2026-05-07 16:46 | 38.25378 | -75.60735 | 31963 ft | 387 kts | 224° |
| 2026-05-07 16:46 | 38.20947 | -75.64646 | 31949 ft | 389 kts | 224° |
| 2026-05-07 16:47 | 38.16536 | -75.68521 | 31958 ft | 388 kts | 224° |
| 2026-05-07 16:47 | 38.12089 | -75.72385 | 31956 ft | 386 kts | 224° |
| 2026-05-07 16:48 | 38.07650 | -75.76235 | 31953 ft | 386 kts | 224° |
| 2026-05-07 16:48 | 38.03228 | -75.80070 | 31969 ft | 387 kts | 224° |
| 2026-05-07 16:49 | 37.98815 | -75.83882 | 31964 ft | 384 kts | 224° |
| 2026-05-07 16:49 | 37.94398 | -75.87687 | 31958 ft | 384 kts | 224° |
| 2026-05-07 16:50 | 37.89981 | -75.91498 | 31956 ft | 387 kts | 224° |
| 2026-05-07 16:50 | 37.85509 | -75.95319 | 31922 ft | 389 kts | 223° |
| 2026-05-07 16:51 | 37.81046 | -75.99142 | 31961 ft | 386 kts | 224° |
| 2026-05-07 16:51 | 37.76607 | -76.02973 | 31927 ft | 387 kts | 224° |
| 2026-05-07 16:52 | 37.72212 | -76.06774 | 31956 ft | 385 kts | 223° |
| 2026-05-07 16:52 | 37.67785 | -76.10554 | 31961 ft | 384 kts | 224° |
| 2026-05-07 16:53 | 37.63351 | -76.14358 | 31962 ft | 386 kts | 223° |
| 2026-05-07 16:53 | 37.58890 | -76.18142 | 31961 ft | 387 kts | 223° |
| 2026-05-07 16:54 | 37.54445 | -76.21940 | 31956 ft | 389 kts | 223° |
| 2026-05-07 16:54 | 37.49946 | -76.25783 | 31956 ft | 392 kts | 223° |
| 2026-05-07 16:55 | 37.45443 | -76.29621 | 31955 ft | 392 kts | 223° |
| 2026-05-07 16:55 | 37.40928 | -76.33473 | 31960 ft | 391 kts | 223° |
| 2026-05-07 16:56 | 37.36438 | -76.37274 | 31958 ft | 391 kts | 223° |
| 2026-05-07 16:56 | 37.29671 | -76.43008 | 31946 ft | 392 kts | 223° |
| 2026-05-07 16:57 | 37.25143 | -76.46856 | 31951 ft | 394 kts | 223° |
| 2026-05-07 16:57 | 37.20586 | -76.50704 | 31954 ft | 395 kts | 222° |
| 2026-05-07 16:58 | 37.16065 | -76.54529 | 31952 ft | 395 kts | 222° |
| 2026-05-07 16:58 | 37.11509 | -76.58371 | 31947 ft | 396 kts | 222° |
| 2026-05-07 16:59 | 37.06917 | -76.62226 | 31946 ft | 398 kts | 222° |
| 2026-05-07 16:59 | 37.02328 | -76.66084 | 31957 ft | 397 kts | 222° |
| 2026-05-07 17:00 | 36.97754 | -76.69932 | 31954 ft | 399 kts | 222° |
| 2026-05-07 17:00 | 36.93135 | -76.73807 | 31927 ft | 401 kts | 222° |
| 2026-05-07 17:01 | 36.88507 | -76.77682 | 31955 ft | 401 kts | 221° |
| 2026-05-07 17:01 | 36.83856 | -76.81549 | 31966 ft | 402 kts | 222° |
| 2026-05-07 17:02 | 36.79211 | -76.85430 | 31957 ft | 402 kts | 222° |
| 2026-05-07 17:02 | 36.74594 | -76.89274 | 31963 ft | 402 kts | 222° |
| 2026-05-07 17:03 | 36.69942 | -76.93150 | 31956 ft | 401 kts | 222° |
| 2026-05-07 17:03 | 36.65287 | -76.97007 | 31964 ft | 402 kts | 222° |
| 2026-05-07 17:04 | 36.60635 | -77.00897 | 31958 ft | 402 kts | 222° |
| 2026-05-07 17:04 | 36.55965 | -77.04753 | 31956 ft | 403 kts | 221° |
| 2026-05-07 17:05 | 36.51322 | -77.08583 | 31948 ft | 403 kts | 222° |
| 2026-05-07 17:05 | 36.46664 | -77.12431 | 31948 ft | 401 kts | 222° |
| 2026-05-07 17:06 | 36.41998 | -77.16284 | 31938 ft | 403 kts | 222° |
| 2026-05-07 17:06 | 36.37329 | -77.20124 | 31917 ft | 403 kts | 222° |
| 2026-05-07 17:07 | 36.32679 | -77.23920 | 31922 ft | 401 kts | 222° |
| 2026-05-07 17:07 | 36.28234 | -77.28016 | 31926 ft | 396 kts | 226° |
| 2026-05-07 17:08 | 36.23899 | -77.32262 | 31931 ft | 396 kts | 226° |
| 2026-05-07 17:08 | 36.19569 | -77.36500 | 31922 ft | 398 kts | 226° |
| 2026-05-07 17:09 | 36.15188 | -77.40717 | 31912 ft | 400 kts | 226° |
| 2026-05-07 17:09 | 36.10850 | -77.44957 | 31902 ft | 400 kts | 226° |
| 2026-05-07 17:10 | 36.06457 | -77.49218 | 31897 ft | 401 kts | 226° |
| 2026-05-07 17:10 | 36.02052 | -77.53480 | 31912 ft | 402 kts | 226° |
| 2026-05-07 17:11 | 35.97654 | -77.57720 | 31881 ft | 401 kts | 226° |
| 2026-05-07 17:11 | 35.93256 | -77.61972 | 31889 ft | 404 kts | 226° |
| 2026-05-07 17:12 | 35.88859 | -77.66200 | 31886 ft | 404 kts | 226° |
| 2026-05-07 17:12 | 35.84438 | -77.70451 | 31888 ft | 403 kts | 226° |
| 2026-05-07 17:13 | 35.80023 | -77.74703 | 31892 ft | 403 kts | 226° |
| 2026-05-07 17:13 | 35.75582 | -77.78959 | 31895 ft | 405 kts | 226° |
| 2026-05-07 17:14 | 35.71172 | -77.83185 | 31893 ft | 405 kts | 226° |
| 2026-05-07 17:14 | 35.66732 | -77.87424 | 31891 ft | 403 kts | 226° |
| 2026-05-07 17:15 | 35.62300 | -77.91637 | 31895 ft | 402 kts | 226° |
| 2026-05-07 17:15 | 35.57877 | -77.95855 | 31897 ft | 402 kts | 226° |
| 2026-05-07 17:16 | 35.53488 | -78.00034 | 31895 ft | 403 kts | 226° |
| 2026-05-07 17:16 | 35.49051 | -78.04258 | 31912 ft | 405 kts | 226° |
| 2026-05-07 17:17 | 35.44577 | -78.08512 | 31892 ft | 407 kts | 225° |
| 2026-05-07 17:17 | 35.40098 | -78.12746 | 31895 ft | 406 kts | 225° |
| 2026-05-07 17:18 | 35.35636 | -78.16970 | 31897 ft | 405 kts | 225° |
| 2026-05-07 17:18 | 35.31204 | -78.21165 | 31889 ft | 406 kts | 225° |
| 2026-05-07 17:19 | 35.26730 | -78.25384 | 31894 ft | 406 kts | 225° |
| 2026-05-07 17:19 | 35.22247 | -78.29607 | 31897 ft | 407 kts | 225° |
| 2026-05-07 17:20 | 35.17756 | -78.33830 | 31895 ft | 408 kts | 225° |
| 2026-05-07 17:20 | 35.13277 | -78.38037 | 31902 ft | 409 kts | 225° |
| 2026-05-07 17:21 | 35.08757 | -78.42282 | 31892 ft | 410 kts | 225° |
| 2026-05-07 17:21 | 35.04221 | -78.46535 | 31899 ft | 412 kts | 225° |
| 2026-05-07 17:22 | 34.99672 | -78.50798 | 31900 ft | 413 kts | 224° |
| 2026-05-07 17:22 | 34.95136 | -78.55037 | 31890 ft | 414 kts | 224° |
| 2026-05-07 17:23 | 34.90564 | -78.59303 | 31884 ft | 414 kts | 224° |
| 2026-05-07 17:23 | 34.85988 | -78.63564 | 31878 ft | 415 kts | 224° |
| 2026-05-07 17:24 | 34.81398 | -78.67837 | 31875 ft | 415 kts | 224° |
| 2026-05-07 17:24 | 34.76809 | -78.72100 | 31877 ft | 415 kts | 224° |
| 2026-05-07 17:25 | 34.72252 | -78.76327 | 31882 ft | 415 kts | 224° |
| 2026-05-07 17:25 | 34.67661 | -78.80581 | 31891 ft | 415 kts | 224° |
| 2026-05-07 17:26 | 34.63055 | -78.84842 | 31886 ft | 416 kts | 224° |
| 2026-05-07 17:26 | 34.58446 | -78.89101 | 31890 ft | 417 kts | 224° |
| 2026-05-07 17:27 | 34.53860 | -78.93334 | 31892 ft | 417 kts | 224° |
| 2026-05-07 17:27 | 34.49242 | -78.97589 | 31900 ft | 417 kts | 224° |
| 2026-05-07 17:28 | 34.44628 | -79.01854 | 31894 ft | 417 kts | 224° |
| 2026-05-07 17:28 | 34.39948 | -79.06027 | 31898 ft | 419 kts | 222° |
| 2026-05-07 17:29 | 34.35198 | -79.10038 | 31902 ft | 419 kts | 221° |
| 2026-05-07 17:29 | 34.30430 | -79.14093 | 31900 ft | 419 kts | 222° |
| 2026-05-07 17:30 | 34.25690 | -79.18176 | 31910 ft | 416 kts | 224° |
| 2026-05-07 17:30 | 34.21198 | -79.22547 | 31909 ft | 414 kts | 225° |
| 2026-05-07 17:31 | 34.16744 | -79.26974 | 31916 ft | 414 kts | 225° |
| 2026-05-07 17:31 | 34.12310 | -79.31353 | 31920 ft | 415 kts | 225° |
| 2026-05-07 17:32 | 34.07833 | -79.35750 | 31917 ft | 415 kts | 225° |
| 2026-05-07 17:32 | 34.03351 | -79.40139 | 31913 ft | 415 kts | 225° |
| 2026-05-07 17:33 | 33.98869 | -79.44522 | 31917 ft | 415 kts | 225° |
| 2026-05-07 17:33 | 33.94403 | -79.48886 | 31913 ft | 417 kts | 225° |
| 2026-05-07 17:34 | 33.89887 | -79.53294 | 31921 ft | 419 kts | 225° |
| 2026-05-07 17:34 | 33.85339 | -79.57707 | 31926 ft | 421 kts | 224° |
| 2026-05-07 17:35 | 33.80714 | -79.62036 | 31928 ft | 422 kts | 224° |
| 2026-05-07 17:35 | 33.76099 | -79.66312 | 31926 ft | 421 kts | 224° |
| 2026-05-07 17:36 | 33.71462 | -79.70617 | 31930 ft | 421 kts | 224° |
| 2026-05-07 17:36 | 33.66830 | -79.74922 | 31937 ft | 421 kts | 224° |
| 2026-05-07 17:37 | 33.62202 | -79.79223 | 31932 ft | 421 kts | 224° |
| 2026-05-07 17:37 | 33.57575 | -79.83518 | 31933 ft | 421 kts | 223° |
| 2026-05-07 17:38 | 33.52975 | -79.87782 | 31937 ft | 421 kts | 223° |
| 2026-05-07 17:38 | 33.48342 | -79.92070 | 31928 ft | 421 kts | 223° |
| 2026-05-07 17:39 | 33.43699 | -79.96361 | 31928 ft | 422 kts | 224° |
| 2026-05-07 17:39 | 33.39037 | -80.00665 | 31959 ft | 426 kts | 223° |
| 2026-05-07 17:40 | 33.36683 | -80.02836 | 32106 ft | 427 kts | 223° |
| 2026-05-07 17:40 | 33.34365 | -80.04972 | 32288 ft | 426 kts | 223° |
| 2026-05-07 17:40 | 33.32011 | -80.07137 | 32446 ft | 427 kts | 223° |
| 2026-05-07 17:40 | 33.29655 | -80.09305 | 32580 ft | 428 kts | 223° |
| 2026-05-07 17:41 | 33.27297 | -80.11472 | 32775 ft | 427 kts | 223° |
| 2026-05-07 17:41 | 33.24944 | -80.13633 | 33021 ft | 425 kts | 223° |
| 2026-05-07 17:41 | 33.22605 | -80.15778 | 33309 ft | 423 kts | 223° |
| 2026-05-07 17:41 | 33.20274 | -80.17914 | 33593 ft | 421 kts | 223° |
| 2026-05-07 17:42 | 33.17989 | -80.20009 | 33860 ft | 419 kts | 223° |
| 2026-05-07 17:42 | 33.15674 | -80.22131 | 33890 ft | 421 kts | 223° |
| 2026-05-07 17:42 | 33.11014 | -80.26401 | 33904 ft | 423 kts | 223° |
| 2026-05-07 17:43 | 33.06346 | -80.30666 | 33900 ft | 423 kts | 223° |
| 2026-05-07 17:43 | 33.01672 | -80.34933 | 33899 ft | 423 kts | 223° |
| 2026-05-07 17:44 | 32.97023 | -80.39171 | 33900 ft | 424 kts | 223° |
| 2026-05-07 17:44 | 32.92332 | -80.43441 | 33903 ft | 425 kts | 223° |
| 2026-05-07 17:45 | 32.87630 | -80.47716 | 33915 ft | 426 kts | 223° |
| 2026-05-07 17:45 | 32.82912 | -80.51999 | 33917 ft | 427 kts | 223° |
| 2026-05-07 17:46 | 32.78211 | -80.56261 | 33927 ft | 428 kts | 223° |
| 2026-05-07 17:46 | 32.73467 | -80.60558 | 33926 ft | 429 kts | 223° |
| 2026-05-07 17:47 | 32.68725 | -80.64876 | 33927 ft | 430 kts | 224° |
| 2026-05-07 17:47 | 32.64019 | -80.69268 | 33926 ft | 430 kts | 224° |
| 2026-05-07 17:48 | 32.59346 | -80.73636 | 33934 ft | 431 kts | 224° |
| 2026-05-07 17:48 | 32.54627 | -80.78029 | 33928 ft | 432 kts | 224° |
| 2026-05-07 17:49 | 32.49901 | -80.82415 | 33928 ft | 432 kts | 224° |
| 2026-05-07 17:49 | 32.45171 | -80.86799 | 33925 ft | 432 kts | 224° |
| 2026-05-07 17:50 | 32.40434 | -80.91183 | 33926 ft | 432 kts | 224° |
| 2026-05-07 17:50 | 32.35730 | -80.95533 | 33927 ft | 432 kts | 224° |
| 2026-05-07 17:51 | 32.30993 | -80.99907 | 33928 ft | 432 kts | 224° |
| 2026-05-07 17:51 | 32.26041 | -81.03977 | 33937 ft | 438 kts | 216° |
| 2026-05-07 17:52 | 32.20708 | -81.07487 | 33930 ft | 439 kts | 216° |
| 2026-05-07 17:52 | 32.15412 | -81.10979 | 33942 ft | 439 kts | 216° |
| 2026-05-07 17:53 | 32.10100 | -81.14513 | 33940 ft | 438 kts | 216° |
| 2026-05-07 17:53 | 32.04789 | -81.18054 | 33937 ft | 438 kts | 216° |
| 2026-05-07 17:54 | 31.99474 | -81.21590 | 33928 ft | 439 kts | 216° |
| 2026-05-07 17:54 | 31.94444 | -81.25526 | 33915 ft | 429 kts | 227° |
| 2026-05-07 17:55 | 31.90053 | -81.30221 | 33918 ft | 430 kts | 228° |
| 2026-05-07 17:55 | 31.85622 | -81.34966 | 33928 ft | 431 kts | 227° |
| 2026-05-07 17:56 | 31.81158 | -81.39698 | 33933 ft | 433 kts | 227° |
| 2026-05-07 17:56 | 31.76705 | -81.44394 | 33935 ft | 433 kts | 227° |
| 2026-05-07 17:57 | 31.72943 | -81.48351 | 33951 ft | 433 kts | 227° |
| 2026-05-07 17:57 | 31.67719 | -81.53842 | 33945 ft | 434 kts | 227° |
| 2026-05-07 17:58 | 31.63222 | -81.58561 | 33951 ft | 433 kts | 227° |
| 2026-05-07 17:58 | 31.58729 | -81.63270 | 33963 ft | 433 kts | 227° |
| 2026-05-07 17:59 | 31.54272 | -81.67937 | 33975 ft | 432 kts | 227° |
| 2026-05-07 17:59 | 31.49790 | -81.72624 | 33989 ft | 432 kts | 227° |
| 2026-05-07 18:00 | 31.45311 | -81.77302 | 34000 ft | 431 kts | 227° |
| 2026-05-07 18:00 | 31.40821 | -81.81963 | 34000 ft | 432 kts | 225° |
| 2026-05-07 18:01 | 31.36038 | -81.86279 | 34004 ft | 435 kts | 223° |
| 2026-05-07 18:01 | 31.31207 | -81.90471 | 34001 ft | 435 kts | 223° |
| 2026-05-07 18:02 | 31.23930 | -81.96821 | 34010 ft | 435 kts | 223° |
| 2026-05-07 18:03 | 31.19089 | -82.01068 | 34010 ft | 435 kts | 223° |
| 2026-05-07 18:03 | 31.14285 | -82.05281 | 34010 ft | 434 kts | 223° |
| 2026-05-07 18:04 | 31.09451 | -82.09514 | 34011 ft | 434 kts | 223° |
| 2026-05-07 18:04 | 31.04631 | -82.13729 | 34019 ft | 433 kts | 223° |
| 2026-05-07 18:05 | 30.99817 | -82.17933 | 34018 ft | 432 kts | 223° |
| 2026-05-07 18:05 | 30.95005 | -82.22131 | 34017 ft | 432 kts | 223° |
| 2026-05-07 18:06 | 30.90227 | -82.26293 | 34028 ft | 432 kts | 223° |
| 2026-05-07 18:06 | 30.85417 | -82.30479 | 34031 ft | 432 kts | 223° |
| 2026-05-07 18:07 | 30.80605 | -82.34660 | 34037 ft | 432 kts | 223° |
| 2026-05-07 18:07 | 30.75791 | -82.38840 | 34032 ft | 432 kts | 223° |
| 2026-05-07 18:08 | 30.71000 | -82.42964 | 34048 ft | 432 kts | 221° |
| 2026-05-07 18:08 | 30.65657 | -82.46311 | 34042 ft | 439 kts | 212° |
| 2026-05-07 18:09 | 30.60146 | -82.49343 | 34032 ft | 438 kts | 213° |
| 2026-05-07 18:09 | 30.54652 | -82.52383 | 34047 ft | 437 kts | 213° |
| 2026-05-07 18:10 | 30.49176 | -82.55438 | 34054 ft | 436 kts | 213° |
| 2026-05-07 18:10 | 30.43746 | -82.58475 | 34063 ft | 436 kts | 213° |
| 2026-05-07 18:11 | 30.38276 | -82.61532 | 34067 ft | 437 kts | 213° |
| 2026-05-07 18:11 | 30.32802 | -82.64587 | 34075 ft | 437 kts | 213° |
| 2026-05-07 18:12 | 30.27322 | -82.67640 | 34077 ft | 437 kts | 213° |
| 2026-05-07 18:12 | 30.21872 | -82.70673 | 34083 ft | 438 kts | 213° |
| 2026-05-07 18:13 | 30.16705 | -82.73544 | 34086 ft | 438 kts | 213° |
| 2026-05-07 18:13 | 30.11206 | -82.76597 | 34084 ft | 438 kts | 213° |
| 2026-05-07 18:14 | 30.06180 | -82.79383 | 34078 ft | 438 kts | 213° |
| 2026-05-07 18:14 | 30.00723 | -82.82405 | 34076 ft | 438 kts | 213° |
| 2026-05-07 18:15 | 29.95227 | -82.85445 | 34068 ft | 438 kts | 213° |
| 2026-05-07 18:15 | 29.89724 | -82.88486 | 34075 ft | 439 kts | 213° |
| 2026-05-07 18:16 | 29.84212 | -82.91527 | 34075 ft | 440 kts | 212° |
| 2026-05-07 18:16 | 29.78697 | -82.94566 | 34074 ft | 440 kts | 212° |
| 2026-05-07 18:17 | 29.73205 | -82.97589 | 34075 ft | 440 kts | 212° |
| 2026-05-07 18:17 | 29.67680 | -83.00628 | 34074 ft | 440 kts | 212° |
| 2026-05-07 18:18 | 29.62148 | -83.03665 | 34073 ft | 441 kts | 212° |
| 2026-05-07 18:18 | 29.56251 | -83.05890 | 34078 ft | 454 kts | 199° |
| 2026-05-07 18:19 | 29.50095 | -83.07301 | 34070 ft | 455 kts | 199° |
| 2026-05-07 18:19 | 29.43890 | -83.08716 | 34074 ft | 454 kts | 199° |
| 2026-05-07 18:20 | 29.37701 | -83.10161 | 34075 ft | 454 kts | 199° |
| 2026-05-07 18:20 | 29.31516 | -83.11622 | 34073 ft | 454 kts | 199° |
| 2026-05-07 18:21 | 29.25371 | -83.13076 | 34078 ft | 454 kts | 199° |
| 2026-05-07 18:21 | 29.19186 | -83.14537 | 34083 ft | 454 kts | 199° |
| 2026-05-07 18:22 | 29.13004 | -83.15994 | 34083 ft | 454 kts | 199° |
| 2026-05-07 18:22 | 29.06819 | -83.17450 | 34086 ft | 454 kts | 199° |
| 2026-05-07 18:23 | 29.00634 | -83.18905 | 34082 ft | 454 kts | 199° |
| 2026-05-07 18:23 | 28.94484 | -83.20349 | 34082 ft | 454 kts | 198° |
| 2026-05-07 18:24 | 28.88290 | -83.21802 | 34084 ft | 455 kts | 199° |
| 2026-05-07 18:24 | 28.82091 | -83.23254 | 34085 ft | 455 kts | 198° |
| 2026-05-07 18:25 | 28.75885 | -83.24707 | 34082 ft | 456 kts | 198° |
| 2026-05-07 18:25 | 28.69705 | -83.26151 | 34085 ft | 456 kts | 198° |
| 2026-05-07 18:26 | 28.63485 | -83.27603 | 34087 ft | 457 kts | 198° |
| 2026-05-07 18:26 | 28.57254 | -83.29055 | 34084 ft | 457 kts | 198° |
| 2026-05-07 18:27 | 28.51014 | -83.30508 | 34082 ft | 458 kts | 198° |
| 2026-05-07 18:27 | 28.44814 | -83.31950 | 34083 ft | 458 kts | 198° |
| 2026-05-07 18:28 | 28.38569 | -83.33401 | 34083 ft | 458 kts | 198° |
| 2026-05-07 18:28 | 28.32313 | -83.34852 | 34075 ft | 459 kts | 198° |
| 2026-05-07 18:29 | 28.26058 | -83.36302 | 34074 ft | 459 kts | 198° |
| 2026-05-07 18:29 | 28.19835 | -83.37742 | 34072 ft | 459 kts | 198° |
| 2026-05-07 18:30 | 28.13574 | -83.39190 | 34074 ft | 459 kts | 198° |
| 2026-05-07 18:30 | 28.07310 | -83.40637 | 34079 ft | 459 kts | 198° |
| 2026-05-07 18:31 | 28.01567 | -83.43238 | 34096 ft | 437 kts | 224° |
| 2026-05-07 18:31 | 27.99398 | -83.45588 | 34085 ft | 429 kts | 235° |
| 2026-05-07 18:31 | 27.97773 | -83.48381 | 34075 ft | 423 kts | 248° |
| 2026-05-07 18:32 | 27.95500 | -83.54459 | 34079 ft | 423 kts | 250° |
| 2026-05-07 18:32 | 27.93304 | -83.60658 | 34086 ft | 426 kts | 250° |
| 2026-05-07 18:33 | 27.91063 | -83.66866 | 34079 ft | 427 kts | 250° |
| 2026-05-07 18:33 | 27.88782 | -83.73079 | 34076 ft | 428 kts | 250° |
| 2026-05-07 18:34 | 27.86500 | -83.79254 | 34073 ft | 429 kts | 250° |
| 2026-05-07 18:34 | 27.84199 | -83.85467 | 34074 ft | 428 kts | 250° |
| 2026-05-07 18:35 | 27.81900 | -83.91667 | 34072 ft | 428 kts | 250° |
| 2026-05-07 18:35 | 27.79601 | -83.97856 | 34073 ft | 427 kts | 250° |
| 2026-05-07 18:36 | 27.77319 | -84.03994 | 34074 ft | 427 kts | 250° |
| 2026-05-07 18:36 | 27.75020 | -84.10167 | 34072 ft | 426 kts | 250° |
| 2026-05-07 18:37 | 27.72720 | -84.16331 | 34081 ft | 426 kts | 250° |
| 2026-05-07 18:37 | 27.70418 | -84.22493 | 34084 ft | 426 kts | 249° |
| 2026-05-07 18:38 | 27.68111 | -84.28657 | 34085 ft | 426 kts | 249° |
| 2026-05-07 18:38 | 27.65817 | -84.34776 | 34085 ft | 426 kts | 249° |
| 2026-05-07 18:39 | 27.63504 | -84.40938 | 34083 ft | 427 kts | 249° |
| 2026-05-07 18:39 | 27.61186 | -84.47102 | 34086 ft | 427 kts | 249° |
| 2026-05-07 18:40 | 27.58865 | -84.53265 | 34080 ft | 427 kts | 249° |
| 2026-05-07 18:40 | 27.56555 | -84.59388 | 34080 ft | 427 kts | 249° |
| 2026-05-07 18:41 | 27.54226 | -84.65556 | 34083 ft | 428 kts | 249° |
| 2026-05-07 18:41 | 27.51892 | -84.71723 | 34081 ft | 428 kts | 249° |
| 2026-05-07 18:41 | 27.50553 | -84.74725 | 34068 ft | 432 kts | 238° |
| 2026-05-07 18:42 | 27.48584 | -84.77294 | 34095 ft | 437 kts | 227° |
| 2026-05-07 18:42 | 27.43378 | -84.80966 | 34081 ft | 452 kts | 206° |
| 2026-05-07 18:43 | 27.37483 | -84.83342 | 34077 ft | 454 kts | 205° |
| 2026-05-07 18:43 | 27.31520 | -84.85699 | 34071 ft | 454 kts | 205° |
| 2026-05-07 18:44 | 27.25576 | -84.88104 | 34073 ft | 454 kts | 205° |
| 2026-05-07 18:44 | 27.19645 | -84.90537 | 34071 ft | 454 kts | 205° |
| 2026-05-07 18:45 | 27.13758 | -84.92957 | 34072 ft | 454 kts | 205° |
| 2026-05-07 18:45 | 27.07828 | -84.95391 | 34076 ft | 454 kts | 205° |
| 2026-05-07 18:46 | 27.01895 | -84.97821 | 34079 ft | 454 kts | 205° |
| 2026-05-07 18:46 | 26.96967 | -84.99838 | 34081 ft | 454 kts | 205° |
| 2026-05-07 18:47 | 26.91036 | -85.02262 | 34082 ft | 454 kts | 205° |
| 2026-05-07 18:47 | 26.84138 | -85.05077 | 34072 ft | 454 kts | 205° |
| 2026-05-07 18:48 | 26.78201 | -85.07498 | 34076 ft | 454 kts | 205° |
| 2026-05-07 18:48 | 26.73259 | -85.09511 | 34073 ft | 455 kts | 205° |
| 2026-05-07 18:49 | 26.66345 | -85.12324 | 34075 ft | 455 kts | 205° |
| 2026-05-07 18:49 | 26.60395 | -85.14742 | 34075 ft | 455 kts | 205° |
| 2026-05-07 18:50 | 26.55443 | -85.16753 | 34074 ft | 456 kts | 205° |
| 2026-05-07 18:50 | 26.49482 | -85.19171 | 34076 ft | 456 kts | 205° |
| 2026-05-07 18:51 | 26.43516 | -85.21588 | 34073 ft | 456 kts | 205° |
| 2026-05-07 18:51 | 26.37470 | -85.23779 | 34069 ft | 462 kts | 196° |
| 2026-05-07 18:52 | 26.31036 | -85.24576 | 34071 ft | 467 kts | 189° |
| 2026-05-07 18:52 | 26.24604 | -85.25162 | 34074 ft | 467 kts | 190° |
| 2026-05-07 18:53 | 26.18134 | -85.25810 | 34072 ft | 466 kts | 190° |
| 2026-05-07 18:53 | 26.11674 | -85.26489 | 34072 ft | 466 kts | 190° |
| 2026-05-07 18:54 | 26.05207 | -85.27169 | 34072 ft | 467 kts | 190° |
| 2026-05-07 18:54 | 25.98740 | -85.27843 | 34064 ft | 467 kts | 190° |
| 2026-05-07 18:55 | 25.92317 | -85.28506 | 34065 ft | 467 kts | 190° |
| 2026-05-07 18:55 | 25.85844 | -85.29175 | 34065 ft | 467 kts | 190° |
| 2026-05-07 18:56 | 25.79364 | -85.29844 | 34065 ft | 467 kts | 190° |
| 2026-05-07 18:56 | 25.72887 | -85.30512 | 34065 ft | 468 kts | 190° |
| 2026-05-07 18:57 | 25.66407 | -85.31180 | 34065 ft | 468 kts | 190° |
| 2026-05-07 18:57 | 25.59965 | -85.31843 | 34064 ft | 468 kts | 190° |
| 2026-05-07 18:58 | 25.53476 | -85.32511 | 34066 ft | 468 kts | 190° |
| 2026-05-07 18:58 | 25.46986 | -85.33178 | 34065 ft | 468 kts | 190° |
| 2026-05-07 18:59 | 25.40496 | -85.33844 | 34065 ft | 469 kts | 189° |
| 2026-05-07 18:59 | 25.34156 | -85.35010 | 34066 ft | 461 kts | 202° |
| 2026-05-07 19:00 | 25.28414 | -85.37964 | 34076 ft | 453 kts | 214° |
| 2026-05-07 19:00 | 25.22985 | -85.41511 | 34057 ft | 454 kts | 214° |
| 2026-05-07 19:01 | 25.17516 | -85.45006 | 34055 ft | 455 kts | 214° |
| 2026-05-07 19:01 | 25.11927 | -85.48307 | 34037 ft | 460 kts | 205° |
| 2026-05-07 19:02 | 25.05721 | -85.50017 | 34044 ft | 469 kts | 190° |
| 2026-05-07 19:02 | 24.99152 | -85.50141 | 34046 ft | 473 kts | 184° |
| 2026-05-07 19:03 | 24.92562 | -85.50052 | 34046 ft | 474 kts | 184° |
| 2026-05-07 19:03 | 24.85964 | -85.50001 | 34047 ft | 474 kts | 184° |
| 2026-05-07 19:04 | 24.79363 | -85.49991 | 34046 ft | 474 kts | 184° |
| 2026-05-07 19:04 | 24.72812 | -85.49994 | 34045 ft | 474 kts | 184° |
| 2026-05-07 19:05 | 24.66207 | -85.49997 | 34047 ft | 475 kts | 184° |
| 2026-05-07 19:05 | 24.59599 | -85.49999 | 34045 ft | 475 kts | 184° |
| 2026-05-07 19:06 | 24.52988 | -85.49999 | 34047 ft | 475 kts | 184° |
| 2026-05-07 19:06 | 24.43114 | -85.49999 | 34045 ft | 475 kts | 184° |
| 2026-05-07 19:07 | 24.36504 | -85.49999 | 34044 ft | 475 kts | 184° |
| 2026-05-07 19:07 | 24.29889 | -85.49999 | 34039 ft | 475 kts | 184° |
| 2026-05-07 19:08 | 24.23273 | -85.49999 | 34038 ft | 475 kts | 184° |
| 2026-05-07 19:08 | 24.16703 | -85.49999 | 34032 ft | 475 kts | 184° |
| 2026-05-07 19:09 | 24.10089 | -85.50000 | 34041 ft | 475 kts | 184° |
| 2026-05-07 19:09 | 24.03471 | -85.50000 | 34030 ft | 475 kts | 184° |
| 2026-05-07 19:10 | 23.96860 | -85.50056 | 34035 ft | 474 kts | 186° |
| 2026-05-07 19:10 | 23.90317 | -85.50389 | 34035 ft | 474 kts | 187° |
| 2026-05-07 19:11 | 23.83734 | -85.50762 | 34032 ft | 474 kts | 186° |
| 2026-05-07 19:11 | 23.77147 | -85.51096 | 34041 ft | 474 kts | 186° |
| 2026-05-07 19:12 | 23.70554 | -85.51410 | 34033 ft | 474 kts | 186° |
| 2026-05-07 19:12 | 23.63965 | -85.51721 | 34039 ft | 474 kts | 186° |
| 2026-05-07 19:13 | 23.57417 | -85.52033 | 34041 ft | 474 kts | 186° |
| 2026-05-07 19:13 | 23.50828 | -85.52346 | 34030 ft | 474 kts | 186° |
| 2026-05-07 19:14 | 23.44236 | -85.52662 | 34030 ft | 474 kts | 186° |
| 2026-05-07 19:14 | 23.37650 | -85.52987 | 34033 ft | 474 kts | 186° |
| 2026-05-07 19:15 | 23.31100 | -85.53310 | 34031 ft | 474 kts | 186° |
| 2026-05-07 19:15 | 23.24513 | -85.53634 | 34027 ft | 474 kts | 186° |
| 2026-05-07 19:16 | 23.17920 | -85.53957 | 34028 ft | 474 kts | 186° |
| 2026-05-07 19:16 | 23.11335 | -85.54279 | 34030 ft | 474 kts | 186° |
| 2026-05-07 19:17 | 23.04747 | -85.54601 | 34031 ft | 474 kts | 186° |
| 2026-05-07 19:17 | 22.98201 | -85.54921 | 34031 ft | 474 kts | 186° |
| 2026-05-07 19:18 | 22.91609 | -85.55243 | 34028 ft | 474 kts | 186° |
| 2026-05-07 19:18 | 22.85026 | -85.55564 | 34017 ft | 474 kts | 186° |
| 2026-05-07 19:19 | 22.78433 | -85.55883 | 34016 ft | 474 kts | 186° |
| 2026-05-07 19:19 | 22.71893 | -85.56197 | 34023 ft | 474 kts | 186° |
| 2026-05-07 19:20 | 22.65307 | -85.56514 | 34018 ft | 473 kts | 185° |
| 2026-05-07 19:20 | 22.58726 | -85.56830 | 34022 ft | 473 kts | 185° |
| 2026-05-07 19:21 | 22.52148 | -85.57145 | 34018 ft | 473 kts | 185° |
| 2026-05-07 19:21 | 22.45613 | -85.57441 | 34017 ft | 473 kts | 185° |
| 2026-05-07 19:22 | 22.39041 | -85.57733 | 33932 ft | 474 kts | 185° |
| 2026-05-07 19:22 | 22.35757 | -85.57880 | 33586 ft | 468 kts | 185° |
| 2026-05-07 19:22 | 22.32533 | -85.58024 | 33289 ft | 461 kts | 185° |
| 2026-05-07 19:23 | 22.29317 | -85.58172 | 33062 ft | 465 kts | 186° |
| 2026-05-07 19:23 | 22.26146 | -85.58840 | 32783 ft | 466 kts | 204° |
| 2026-05-07 19:23 | 22.23268 | -85.60439 | 32195 ft | 466 kts | 218° |
| 2026-05-07 19:23 | 22.20929 | -85.62822 | 31462 ft | 461 kts | 232° |
| 2026-05-07 19:24 | 22.19007 | -85.65522 | 30678 ft | 461 kts | 234° |
| 2026-05-07 19:24 | 22.17112 | -85.68316 | 29846 ft | 462 kts | 235° |
| 2026-05-07 19:24 | 22.15224 | -85.71121 | 28984 ft | 463 kts | 234° |
| 2026-05-07 19:24 | 22.13316 | -85.73923 | 28048 ft | 464 kts | 233° |
| 2026-05-07 19:25 | 22.11384 | -85.76724 | 27093 ft | 466 kts | 233° |
| 2026-05-07 19:25 | 22.09434 | -85.79524 | 26072 ft | 468 kts | 232° |
| 2026-05-07 19:25 | 22.07471 | -85.82325 | 25293 ft | 466 kts | 232° |
| 2026-05-07 19:25 | 22.05530 | -85.85092 | 24723 ft | 458 kts | 232° |
| 2026-05-07 19:26 | 22.03670 | -85.87743 | 24561 ft | 441 kts | 232° |
| 2026-05-07 19:26 | 22.01849 | -85.90338 | 24359 ft | 427 kts | 232° |
| 2026-05-07 19:26 | 22.00084 | -85.92853 | 24172 ft | 414 kts | 232° |
| 2026-05-07 19:26 | 21.98370 | -85.95295 | 23998 ft | 402 kts | 232° |
| 2026-05-07 19:27 | 21.96705 | -85.97661 | 23831 ft | 390 kts | 230° |
| 2026-05-07 19:27 | 21.94872 | -85.99777 | 23402 ft | 385 kts | 221° |
| 2026-05-07 19:27 | 21.92863 | -86.01674 | 22979 ft | 382 kts | 219° |
| 2026-05-07 19:27 | 21.90950 | -86.03408 | 22562 ft | 380 kts | 219° |
| 2026-05-07 19:28 | 21.88961 | -86.05206 | 22113 ft | 378 kts | 219° |
| 2026-05-07 19:28 | 21.86964 | -86.07030 | 21669 ft | 376 kts | 220° |
| 2026-05-07 19:28 | 21.85009 | -86.08838 | 21239 ft | 375 kts | 220° |
| 2026-05-07 19:28 | 21.83040 | -86.10676 | 20797 ft | 375 kts | 220° |
| 2026-05-07 19:29 | 21.81072 | -86.12522 | 20359 ft | 376 kts | 220° |
| 2026-05-07 19:29 | 21.79082 | -86.14388 | 19918 ft | 384 kts | 220° |
| 2026-05-07 19:29 | 21.77048 | -86.16299 | 19441 ft | 390 kts | 220° |
| 2026-05-07 19:29 | 21.75009 | -86.18215 | 18985 ft | 388 kts | 220° |
| 2026-05-07 19:30 | 21.72981 | -86.20120 | 18576 ft | 385 kts | 220° |
| 2026-05-07 19:30 | 21.70996 | -86.21985 | 18419 ft | 374 kts | 220° |
| 2026-05-07 19:30 | 21.69061 | -86.23802 | 18244 ft | 365 kts | 220° |
| 2026-05-07 19:30 | 21.67200 | -86.25549 | 18091 ft | 356 kts | 220° |
| 2026-05-07 19:31 | 21.65359 | -86.27274 | 17918 ft | 348 kts | 220° |
| 2026-05-07 19:31 | 21.63541 | -86.28978 | 17581 ft | 346 kts | 220° |
| 2026-05-07 19:31 | 21.61732 | -86.30675 | 17262 ft | 344 kts | 220° |
| 2026-05-07 19:31 | 21.59932 | -86.32364 | 16937 ft | 343 kts | 220° |
| 2026-05-07 19:32 | 21.58141 | -86.34044 | 16604 ft | 341 kts | 220° |
| 2026-05-07 19:32 | 21.56353 | -86.35721 | 16283 ft | 340 kts | 220° |
| 2026-05-07 19:32 | 21.54575 | -86.37387 | 15956 ft | 339 kts | 220° |
| 2026-05-07 19:32 | 21.52799 | -86.39040 | 15631 ft | 337 kts | 218° |
| 2026-05-07 19:33 | 21.50948 | -86.40509 | 15320 ft | 334 kts | 212° |
| 2026-05-07 19:33 | 21.49007 | -86.41876 | 15005 ft | 333 kts | 211° |
| 2026-05-07 19:33 | 21.47060 | -86.43217 | 14665 ft | 332 kts | 211° |
| 2026-05-07 19:33 | 21.45130 | -86.44558 | 14345 ft | 329 kts | 211° |
| 2026-05-07 19:34 | 21.43223 | -86.45900 | 14035 ft | 327 kts | 212° |
| 2026-05-07 19:34 | 21.41341 | -86.47237 | 13739 ft | 323 kts | 212° |
| 2026-05-07 19:34 | 21.39475 | -86.48568 | 13391 ft | 321 kts | 212° |
| 2026-05-07 19:34 | 21.37623 | -86.49892 | 13096 ft | 318 kts | 212° |
| 2026-05-07 19:35 | 21.35813 | -86.51185 | 12799 ft | 315 kts | 212° |
| 2026-05-07 19:35 | 21.34001 | -86.52480 | 12507 ft | 311 kts | 212° |
| 2026-05-07 19:35 | 21.32202 | -86.53766 | 12184 ft | 310 kts | 212° |
| 2026-05-07 19:35 | 21.30418 | -86.55042 | 11897 ft | 307 kts | 212° |
| 2026-05-07 19:36 | 21.28650 | -86.56306 | 11608 ft | 304 kts | 212° |
| 2026-05-07 19:36 | 21.26895 | -86.57560 | 11327 ft | 302 kts | 212° |
| 2026-05-07 19:36 | 21.25156 | -86.58802 | 11020 ft | 300 kts | 211° |
| 2026-05-07 19:36 | 21.23424 | -86.60039 | 10738 ft | 298 kts | 211° |
| 2026-05-07 19:37 | 21.21727 | -86.61251 | 10449 ft | 296 kts | 211° |
| 2026-05-07 19:37 | 21.20023 | -86.62468 | 10169 ft | 293 kts | 211° |
| 2026-05-07 19:37 | 21.18333 | -86.63674 | 9856 ft | 291 kts | 211° |
| 2026-05-07 19:37 | 21.16659 | -86.64868 | 9582 ft | 287 kts | 211° |
| 2026-05-07 19:38 | 21.15013 | -86.66044 | 9307 ft | 281 kts | 211° |
| 2026-05-07 19:38 | 21.13404 | -86.67191 | 9046 ft | 275 kts | 211° |
| 2026-05-07 19:38 | 21.11841 | -86.68307 | 8812 ft | 264 kts | 211° |
| 2026-05-07 19:38 | 21.10345 | -86.69373 | 8550 ft | 254 kts | 211° |
| 2026-05-07 19:39 | 21.08887 | -86.70418 | 8312 ft | 250 kts | 213° |
| 2026-05-07 19:39 | 21.07751 | -86.71827 | 8052 ft | 256 kts | 242° |
| 2026-05-07 19:39 | 21.07413 | -86.73669 | 7784 ft | 261 kts | 273° |
| 2026-05-07 19:39 | 21.07981 | -86.75519 | 7503 ft | 265 kts | 298° |
| 2026-05-07 19:40 | 21.08979 | -86.77183 | 7210 ft | 267 kts | 304° |
| 2026-05-07 19:40 | 21.10046 | -86.78820 | 6898 ft | 269 kts | 304° |
| 2026-05-07 19:40 | 21.11114 | -86.80473 | 6561 ft | 269 kts | 303° |
| 2026-05-07 19:40 | 21.12163 | -86.82114 | 6248 ft | 267 kts | 303° |
| 2026-05-07 19:41 | 21.13198 | -86.83749 | 5930 ft | 262 kts | 303° |
| 2026-05-07 19:41 | 21.14205 | -86.85355 | 5635 ft | 258 kts | 303° |
| 2026-05-07 19:41 | 21.15179 | -86.86908 | 5315 ft | 254 kts | 303° |
| 2026-05-07 19:41 | 21.16156 | -86.88470 | 5029 ft | 249 kts | 303° |
| 2026-05-07 19:42 | 21.17108 | -86.89996 | 4776 ft | 243 kts | 303° |
| 2026-05-07 19:42 | 21.18038 | -86.91485 | 4554 ft | 238 kts | 303° |
| 2026-05-07 19:42 | 21.18949 | -86.92947 | 4303 ft | 234 kts | 303° |
| 2026-05-07 19:42 | 21.19851 | -86.94394 | 4059 ft | 233 kts | 303° |
| 2026-05-07 19:43 | 21.20751 | -86.95837 | 3846 ft | 233 kts | 303° |
| 2026-05-07 19:43 | 21.21652 | -86.97284 | 3643 ft | 234 kts | 303° |
| 2026-05-07 19:43 | 21.22548 | -86.98718 | 3392 ft | 236 kts | 303° |
| 2026-05-07 19:43 | 21.23461 | -87.00184 | 3143 ft | 236 kts | 302° |
| 2026-05-07 19:44 | 21.24367 | -87.01634 | 3040 ft | 234 kts | 303° |
| 2026-05-07 19:44 | 21.25258 | -87.03062 | 2968 ft | 223 kts | 302° |
| 2026-05-07 19:44 | 21.26097 | -87.04409 | 2992 ft | 214 kts | 302° |
| 2026-05-07 19:44 | 21.26930 | -87.05749 | 2998 ft | 219 kts | 302° |
| 2026-05-07 19:45 | 21.27784 | -87.07119 | 2996 ft | 222 kts | 303° |
| 2026-05-07 19:45 | 21.28496 | -87.08577 | 2966 ft | 220 kts | 279° |
| 2026-05-07 19:45 | 21.28377 | -87.10139 | 2984 ft | 207 kts | 241° |
| 2026-05-07 19:45 | 21.27568 | -87.11336 | 2990 ft | 199 kts | 218° |
| 2026-05-07 19:46 | 21.26464 | -87.12212 | 2941 ft | 198 kts | 208° |
| 2026-05-07 19:46 | 21.25263 | -87.13042 | 2551 ft | 206 kts | 208° |
| 2026-05-07 19:46 | 21.24081 | -87.13865 | 2314 ft | 198 kts | 208° |
| 2026-05-07 19:46 | 21.22932 | -87.14661 | 2156 ft | 195 kts | 205° |
| 2026-05-07 19:47 | 21.21638 | -87.14972 | 2036 ft | 192 kts | 169° |
| 2026-05-07 19:47 | 21.20442 | -87.14405 | 2006 ft | 189 kts | 136° |
| 2026-05-07 19:47 | 21.19627 | -87.13320 | 1987 ft | 186 kts | 124° |
| 2026-05-07 19:47 | 21.18912 | -87.12181 | 1981 ft | 183 kts | 123° |
| 2026-05-07 19:48 | 21.18211 | -87.11059 | 1984 ft | 184 kts | 123° |
| 2026-05-07 19:48 | 21.17516 | -87.09944 | 1971 ft | 174 kts | 123° |
| 2026-05-07 19:48 | 21.16860 | -87.08888 | 1991 ft | 167 kts | 123° |
| 2026-05-07 19:48 | 21.16226 | -87.07873 | 1997 ft | 162 kts | 123° |
| 2026-05-07 19:49 | 21.15592 | -87.06856 | 1960 ft | 165 kts | 123° |
| 2026-05-07 19:49 | 21.14957 | -87.05838 | 1883 ft | 163 kts | 123° |
| 2026-05-07 19:49 | 21.14330 | -87.04827 | 1828 ft | 164 kts | 123° |
| 2026-05-07 19:49 | 21.13693 | -87.03807 | 1773 ft | 165 kts | 123° |
| 2026-05-07 19:50 | 21.13086 | -87.02836 | 1694 ft | 154 kts | 124° |
| 2026-05-07 19:50 | 21.12500 | -87.01894 | 1648 ft | 152 kts | 124° |
| 2026-05-07 19:50 | 21.11906 | -87.00941 | 1619 ft | 155 kts | 123° |
| 2026-05-07 19:50 | 21.11324 | -87.00006 | 1604 ft | 145 kts | 124° |
| 2026-05-07 19:51 | 21.10768 | -86.99114 | 1534 ft | 142 kts | 124° |
| 2026-05-07 19:51 | 21.10207 | -86.98218 | 1484 ft | 149 kts | 125° |
| 2026-05-07 19:51 | 21.09623 | -86.97278 | 1429 ft | 153 kts | 125° |
| 2026-05-07 19:51 | 21.09041 | -86.96341 | 1343 ft | 148 kts | 125° |
| 2026-05-07 19:52 | 21.08467 | -86.95419 | 1305 ft | 149 kts | 125° |
| 2026-05-07 19:52 | 21.07883 | -86.94481 | 1151 ft | 152 kts | 125° |
| 2026-05-07 19:52 | 21.07310 | -86.93560 | 1007 ft | 149 kts | 125° |
| 2026-05-07 19:52 | 21.06733 | -86.92636 | 819 ft | 151 kts | 125° |
| 2026-05-07 19:53 | 21.06158 | -86.91712 | 629 ft | 149 kts | 125° |
| 2026-05-07 19:53 | 21.05580 | -86.90783 | 415 ft | 151 kts | 124° |
| 2026-05-07 19:53 | 21.05009 | -86.89854 | 242 ft | 146 kts | 124° |
| 2026-05-07 19:53 | 21.04441 | -86.88953 | 44 ft | 146 kts | 125° |
| 2026-05-07 19:54 | 21.03916 | -86.88129 | 35 ft | 120 kts | 123° |
| 2026-05-07 19:54 | 21.03658 | -86.87709 | 34 ft | 22 kts | 119° |
| 2026-05-07 19:54 | 21.03619 | -86.87605 | 35 ft | 9 kts | 104° |
| 2026-05-07 19:54 | 21.03607 | -86.87538 | 35 ft | 9 kts | 101° |
| 2026-05-07 19:55 | 21.03600 | -86.87470 | 34 ft | 10 kts | 94° |
| 2026-05-07 19:55 | 21.03601 | -86.87393 | 32 ft | 11 kts | 74° |
| 2026-05-07 19:55 | 21.03652 | -86.87334 | 29 ft | 10 kts | 33° |
| 2026-05-07 19:55 | 21.03664 | -86.87268 | 29 ft | 9 kts | 114° |
| 2026-05-07 19:56 | 21.03671 | -86.87216 | 29 ft | 4 kts | 45° |
| 2026-05-07 19:56 | 21.03684 | -86.87206 | 28 ft | 1 kts | 36° |
| 2026-05-07 19:56 | 21.03689 | -86.87202 | 28 ft | 1 kts | 34° |
| 2026-05-07 19:56 | 21.03697 | -86.87196 | 28 ft | 2 kts | 33° |
| 2026-05-07 19:57 | 21.03708 | -86.87188 | 28 ft | 1 kts | 33° |
| 2026-05-07 19:57 | 21.03713 | -86.87185 | 28 ft | 0 kts | 33° |